Time;durP1;ratioP1;P1;durP2;ratioP2;P2;SDS_P1;SDS_P2;PMS_P1;PMS_P2;Temp;Humidity;BMP_temperature;BMP_pressure;BME280_temperature;BME280_humidity;BME280_pressure;Samples;Min_cycle;Max_cycle;Signal;HPM_P1;HPM_P2
2022/09/07 00:01:04;;;;;;;2.77;2.20;;;18.80;99.90;;;;;;5072439;28;20738;-79
2022/09/07 00:03:31;;;;;;;1.60;1.50;;;18.70;99.90;;;;;;5079365;28;20622;-80
2022/09/07 00:05:59;;;;;;;1.30;1.20;;;18.70;99.90;;;;;;5069908;28;20657;-79
2022/09/07 00:08:27;;;;;;;1.67;1.30;;;18.70;99.90;;;;;;5077199;28;20640;-79
2022/09/07 00:10:56;;;;;;;1.60;1.50;;;18.70;99.90;;;;;;5090381;28;20620;-79
2022/09/07 00:13:24;;;;;;;1.50;1.40;;;18.60;99.90;;;;;;5079271;28;20625;-79
2022/09/07 00:15:51;;;;;;;1.30;1.20;;;18.60;99.90;;;;;;5070665;28;20672;-80
2022/09/07 00:18:20;;;;;;;3.47;1.60;;;18.60;99.90;;;;;;5078760;28;20678;-80
2022/09/07 00:20:47;;;;;;;2.53;1.57;;;18.60;99.90;;;;;;5089442;28;20644;-80
2022/09/07 00:23:14;;;;;;;1.30;1.20;;;18.60;99.90;;;;;;5083755;28;20697;-80
2022/09/07 00:25:41;;;;;;;1.17;1.13;;;18.60;99.90;;;;;;5076694;28;20637;-79
2022/09/07 00:28:08;;;;;;;1.57;1.30;;;18.60;99.90;;;;;;5068696;28;21174;-80
2022/09/07 00:30:41;;;;;;;1.37;1.30;;;18.50;99.90;;;;;;5068400;28;21395;-80
2022/09/07 00:33:08;;;;;;;1.60;1.03;;;18.50;99.90;;;;;;5087182;28;20642;-79
2022/09/07 00:35:41;;;;;;;1.73;1.60;;;18.50;99.90;;;;;;5083870;28;20648;-80
2022/09/07 00:38:08;;;;;;;1.57;1.30;;;18.50;99.90;;;;;;5085058;28;20705;-79
2022/09/07 00:40:35;;;;;;;1.60;1.50;;;18.60;99.90;;;;;;5068187;28;20655;-80
2022/09/07 00:43:02;;;;;;;1.57;1.27;;;18.50;99.90;;;;;;5064806;28;20702;-79
2022/09/07 00:45:29;;;;;;;2.40;1.40;;;18.60;99.90;;;;;;5069476;28;20669;-80
2022/09/07 00:48:02;;;;;;;1.13;1.13;;;18.60;99.90;;;;;;5067910;28;20627;-81
2022/09/07 00:50:32;;;;;;;1.00;0.90;;;18.70;99.90;;;;;;5073669;28;20664;-80
2022/09/07 00:53:04;;;;;;;0.80;0.80;;;18.60;99.90;;;;;;5082371;28;20660;-80
2022/09/07 00:55:33;;;;;;;4.20;1.33;;;18.70;99.90;;;;;;5068428;28;20625;-79
2022/09/07 00:58:01;;;;;;;1.03;0.90;;;18.70;99.90;;;;;;5068398;28;20657;-79
2022/09/07 01:00:28;;;;;;;1.80;1.70;;;18.70;99.90;;;;;;5076921;28;20678;-79
2022/09/07 01:02:56;;;;;;;1.27;1.17;;;18.70;99.90;;;;;;5077136;28;20752;-80
2022/09/07 01:05:30;;;;;;;1.47;1.37;;;18.70;99.90;;;;;;5068489;28;20606;-79
2022/09/07 01:07:58;;;;;;;3.07;1.60;;;18.60;99.90;;;;;;5085355;28;20627;-80
2022/09/07 01:10:30;;;;;;;0.90;0.90;;;18.60;99.90;;;;;;5086479;28;20628;-80
2022/09/07 01:12:57;;;;;;;1.33;1.23;;;18.60;99.90;;;;;;5084139;28;20631;-79
2022/09/07 01:15:38;;;;;;;2.40;1.37;;;18.50;99.90;;;;;;5066465;28;21409;-79
2022/09/07 01:18:17;;;;;;;1.07;1.00;;;18.30;99.90;;;;;;5086849;28;20625;-79
2022/09/07 01:20:55;;;;;;;0.83;0.83;;;18.30;99.90;;;;;;5088075;28;20609;-80
2022/09/07 01:24:04;;;;;;;1.17;1.13;;;18.30;99.90;;;;;;5056686;28;20729;-79
2022/09/07 01:27:08;;;;;;;1.23;1.13;;;18.40;99.90;;;;;;5084078;28;20617;-80
2022/09/07 01:29:41;;;;;;;1.03;1.03;;;18.40;99.90;;;;;;5068461;28;20626;-79
2022/09/07 01:32:13;;;;;;;0.97;0.93;;;18.30;99.90;;;;;;5069779;28;20617;-79
2022/09/07 01:34:43;;;;;;;1.07;1.07;;;18.30;99.90;;;;;;5072373;28;21295;-79
2022/09/07 01:37:21;;;;;;;1.27;0.90;;;18.30;99.90;;;;;;5068602;28;20731;-80
2022/09/07 01:39:56;;;;;;;1.33;1.03;;;18.40;99.90;;;;;;5061319;28;21201;-80
2022/09/07 01:42:30;;;;;;;1.30;1.20;;;18.40;99.90;;;;;;5068806;28;20665;-79
2022/09/07 01:45:02;;;;;;;0.90;0.90;;;18.50;99.90;;;;;;5074125;28;20613;-79
2022/09/07 01:47:35;;;;;;;1.20;1.10;;;18.40;99.90;;;;;;5066943;28;20612;-79
2022/09/07 01:50:09;;;;;;;1.30;1.20;;;18.60;99.90;;;;;;5069215;28;20629;-79
2022/09/07 01:52:41;;;;;;;1.30;1.23;;;18.70;99.90;;;;;;5067804;28;20653;-79
2022/09/07 01:55:15;;;;;;;1.10;1.00;;;18.80;99.90;;;;;;5067880;28;20996;-79
2022/09/07 01:57:47;;;;;;;1.30;1.20;;;18.80;99.90;;;;;;5068047;28;20666;-80
2022/09/07 02:00:19;;;;;;;2.60;1.30;;;18.80;99.90;;;;;;5058742;28;20706;-79
2022/09/07 02:02:51;;;;;;;2.00;1.80;;;18.90;99.90;;;;;;5072271;28;20664;-80
2022/09/07 02:05:23;;;;;;;1.23;1.13;;;18.80;99.90;;;;;;5077851;28;20617;-79
2022/09/07 02:07:56;;;;;;;1.20;1.10;;;18.70;99.90;;;;;;5066618;28;20614;-80
2022/09/07 02:10:27;;;;;;;1.70;1.60;;;18.70;99.90;;;;;;5085463;28;20620;-80
2022/09/07 02:12:59;;;;;;;1.33;1.23;;;18.80;99.90;;;;;;5056380;28;20686;-79
2022/09/07 02:15:36;;;;;;;1.20;1.00;;;18.70;99.90;;;;;;5066820;28;20695;-79
2022/09/07 02:18:07;;;;;;;2.30;1.10;;;18.70;99.90;;;;;;5070269;28;20629;-80
2022/09/07 02:20:37;;;;;;;1.50;1.40;;;18.70;99.90;;;;;;5074658;28;20628;-78
2022/09/07 02:23:08;;;;;;;1.70;1.30;;;18.60;99.90;;;;;;5080149;28;20668;-80
2022/09/07 02:25:42;;;;;;;1.37;1.07;;;18.60;99.90;;;;;;5070515;28;20637;-79
2022/09/07 02:28:14;;;;;;;1.53;1.43;;;18.60;99.90;;;;;;5070712;28;20665;-79
2022/09/07 02:30:44;;;;;;;1.03;0.90;;;18.50;99.90;;;;;;5070226;28;20633;-79
2022/09/07 02:33:11;;;;;;;1.40;1.30;;;18.50;99.90;;;;;;5084696;28;20743;-79
2022/09/07 02:35:39;;;;;;;1.73;1.23;;;18.50;99.90;;;;;;5079651;28;20629;-80
2022/09/07 02:38:08;;;;;;;2.10;1.30;;;18.60;99.90;;;;;;5083224;28;20633;-79
2022/09/07 02:40:38;;;;;;;0.83;0.83;;;18.70;99.90;;;;;;5085381;28;20629;-79
2022/09/07 02:43:08;;;;;;;0.93;0.93;;;18.70;99.90;;;;;;5075411;28;20762;-80
2022/09/07 02:45:51;;;;;;;2.90;1.90;;;18.70;99.90;;;;;;5070756;28;20660;-79
2022/09/07 02:48:28;;;;;;;1.50;1.40;;;18.70;99.90;;;;;;5075910;28;20628;-79
2022/09/07 02:51:08;;;;;;;2.53;1.43;;;18.70;99.90;;;;;;5084793;28;20627;-79
2022/09/07 02:53:52;;;;;;;2.03;1.40;;;18.70;99.90;;;;;;5073738;28;20994;-80
2022/09/07 02:56:34;;;;;;;1.50;0.90;;;18.60;99.90;;;;;;5069197;28;20623;-79
2022/09/07 02:59:12;;;;;;;2.70;1.37;;;18.60;99.90;;;;;;5071175;28;20624;-79
2022/09/07 03:01:52;;;;;;;1.50;1.20;;;18.60;99.90;;;;;;5069658;28;20743;-79
2022/09/07 03:04:28;;;;;;;1.23;1.00;;;18.70;99.90;;;;;;5061361;28;20605;-79
2022/09/07 03:07:02;;;;;;;3.13;1.20;;;18.70;99.90;;;;;;5070133;28;20621;-79
2022/09/07 03:09:35;;;;;;;1.27;1.20;;;18.70;99.90;;;;;;5088402;28;20665;-79
2022/09/07 03:12:04;;;;;;;1.60;1.50;;;18.80;99.90;;;;;;5061083;28;20625;-80
2022/09/07 03:14:33;;;;;;;2.13;1.67;;;18.80;99.90;;;;;;5081800;28;20623;-80
2022/09/07 03:17:02;;;;;;;1.47;1.37;;;18.80;99.90;;;;;;5078671;28;20647;-80
2022/09/07 03:19:29;;;;;;;1.13;1.03;;;18.90;99.90;;;;;;5089727;28;20682;-79
2022/09/07 03:21:55;;;;;;;2.40;1.37;;;18.80;99.90;;;;;;5072246;28;20718;-79
2022/09/07 03:24:22;;;;;;;1.47;1.37;;;18.80;99.90;;;;;;5083439;28;20664;-79
2022/09/07 03:26:50;;;;;;;1.23;1.13;;;18.80;99.90;;;;;;5089118;28;20601;-80
2022/09/07 03:29:18;;;;;;;2.20;1.40;;;18.80;99.90;;;;;;5087997;28;21278;-79
2022/09/07 03:31:45;;;;;;;1.67;1.50;;;18.90;99.90;;;;;;5088973;28;21602;-79
2022/09/07 03:34:14;;;;;;;1.80;1.70;;;18.90;99.90;;;;;;5070081;28;20676;-80
2022/09/07 03:36:41;;;;;;;1.57;1.47;;;18.80;99.90;;;;;;5068323;28;20725;-79
2022/09/07 03:39:08;;;;;;;1.50;1.40;;;18.70;99.90;;;;;;5068918;28;20697;-79
2022/09/07 03:41:34;;;;;;;1.93;1.83;;;18.60;99.90;;;;;;5069199;28;20632;-79
2022/09/07 03:44:03;;;;;;;1.93;1.83;;;18.60;99.90;;;;;;5082139;28;20630;-79
2022/09/07 03:46:31;;;;;;;1.20;1.13;;;18.60;99.90;;;;;;5048200;28;21003;-79
2022/09/07 03:48:57;;;;;;;2.80;1.73;;;18.50;99.90;;;;;;5065849;28;20625;-80
2022/09/07 03:51:26;;;;;;;2.07;1.30;;;18.50;99.90;;;;;;5074557;28;20630;-79
2022/09/07 03:53:54;;;;;;;1.47;1.37;;;18.50;99.90;;;;;;5083813;28;21229;-79
2022/09/07 03:56:22;;;;;;;2.87;1.30;;;18.40;99.90;;;;;;5068196;28;20711;-79
2022/09/07 03:58:50;;;;;;;1.30;1.20;;;18.40;99.90;;;;;;5069289;28;20722;-80
2022/09/07 04:01:20;;;;;;;1.87;1.77;;;18.40;99.90;;;;;;5069106;28;20652;-79
2022/09/07 04:03:47;;;;;;;1.57;1.47;;;18.40;99.90;;;;;;5080002;28;20700;-79
2022/09/07 04:06:15;;;;;;;1.50;1.40;;;18.40;99.90;;;;;;5068927;28;20642;-79
2022/09/07 04:08:44;;;;;;;1.70;1.60;;;18.30;99.90;;;;;;5080394;28;20674;-79
2022/09/07 04:11:13;;;;;;;1.53;1.43;;;18.40;99.90;;;;;;5088301;28;20674;-80
2022/09/07 04:13:40;;;;;;;1.57;1.47;;;18.30;99.90;;;;;;5072746;28;20645;-79
2022/09/07 04:16:13;;;;;;;1.53;1.37;;;18.40;99.90;;;;;;5070712;28;20735;-79
2022/09/07 04:18:40;;;;;;;1.90;1.63;;;18.40;99.90;;;;;;5072046;28;20676;-79
2022/09/07 04:21:07;;;;;;;1.70;1.60;;;18.50;99.90;;;;;;5083220;28;20663;-79
2022/09/07 04:23:34;;;;;;;1.93;1.83;;;18.40;99.90;;;;;;5082991;28;20729;-79
2022/09/07 04:26:02;;;;;;;1.53;1.43;;;18.40;99.90;;;;;;5087059;28;20709;-80
2022/09/07 04:28:29;;;;;;;2.00;1.80;;;18.40;99.90;;;;;;5067723;28;20657;-79
2022/09/07 04:31:00;;;;;;;1.57;1.47;;;18.50;99.90;;;;;;5084046;28;21231;-81
2022/09/07 04:33:27;;;;;;;1.73;1.30;;;18.60;99.90;;;;;;5074170;28;20699;-80
2022/09/07 04:35:54;;;;;;;2.80;1.97;;;18.50;99.90;;;;;;5075613;28;20671;-81
2022/09/07 04:38:20;;;;;;;1.43;1.33;;;18.60;99.90;;;;;;5079597;28;20648;-80
2022/09/07 04:40:47;;;;;;;1.80;1.60;;;18.60;99.90;;;;;;5088447;28;20977;-81
2022/09/07 04:43:16;;;;;;;0.90;0.90;;;18.70;99.90;;;;;;5076422;28;20668;-81
2022/09/07 04:45:42;;;;;;;1.73;1.63;;;18.50;99.90;;;;;;5072539;28;20682;-81
2022/09/07 04:48:09;;;;;;;1.83;1.73;;;18.60;99.90;;;;;;5085753;28;20621;-80
2022/09/07 04:50:36;;;;;;;6.40;1.63;;;18.50;99.90;;;;;;5067928;28;20649;-82
2022/09/07 04:53:03;;;;;;;2.73;1.80;;;18.40;99.90;;;;;;5077524;28;20660;-80
2022/09/07 04:55:31;;;;;;;1.63;1.53;;;18.50;99.90;;;;;;5088054;28;20659;-81
2022/09/07 04:57:58;;;;;;;1.73;1.63;;;18.40;99.90;;;;;;5085808;28;20689;-80
2022/09/07 05:00:27;;;;;;;1.60;1.50;;;18.50;99.90;;;;;;5078901;28;20620;-80
2022/09/07 05:02:54;;;;;;;1.27;1.17;;;18.50;99.90;;;;;;5087603;28;20703;-80
2022/09/07 05:05:20;;;;;;;1.83;1.73;;;18.70;99.90;;;;;;5076863;28;20665;-80
2022/09/07 05:07:47;;;;;;;2.70;1.77;;;18.70;99.90;;;;;;5082155;28;20628;-81
2022/09/07 05:10:14;;;;;;;1.33;1.23;;;18.70;99.90;;;;;;5068816;28;20632;-80
2022/09/07 05:12:41;;;;;;;1.63;1.43;;;18.60;99.90;;;;;;5071379;28;20618;-81
2022/09/07 05:15:09;;;;;;;2.53;2.20;;;18.60;99.90;;;;;;5067604;28;20695;-79
2022/09/07 05:17:37;;;;;;;1.67;1.57;;;18.60;99.90;;;;;;5067204;28;20661;-80
2022/09/07 05:20:05;;;;;;;1.63;1.07;;;18.60;99.90;;;;;;5084587;28;20627;-81
2022/09/07 05:22:34;;;;;;;1.60;1.50;;;18.70;99.90;;;;;;5119360;27;20663;-80
2022/09/07 05:25:01;;;;;;;1.23;1.13;;;18.60;99.90;;;;;;5067701;28;20665;-82
2022/09/07 05:27:28;;;;;;;1.70;1.60;;;18.60;99.90;;;;;;5067958;28;20625;-81
2022/09/07 05:29:55;;;;;;;3.17;2.07;;;18.70;99.90;;;;;;5067716;28;20974;-83
2022/09/07 05:32:22;;;;;;;2.60;1.80;;;18.70;99.90;;;;;;5081581;28;20617;-83
2022/09/07 05:34:50;;;;;;;3.20;2.50;;;18.80;99.90;;;;;;5083633;28;20653;-82
2022/09/07 05:37:17;;;;;;;1.57;1.47;;;18.70;99.90;;;;;;5073225;28;20625;-83
2022/09/07 05:39:44;;;;;;;1.70;1.60;;;18.70;99.90;;;;;;5078168;28;20683;-83
2022/09/07 05:42:11;;;;;;;1.17;1.07;;;18.80;99.90;;;;;;5067105;28;20626;-83
2022/09/07 05:44:38;;;;;;;6.13;1.93;;;18.90;99.90;;;;;;5067420;28;20645;-81
2022/09/07 05:47:05;;;;;;;6.37;1.63;;;19.00;99.90;;;;;;5066498;28;20691;-82
2022/09/07 05:49:32;;;;;;;2.00;1.80;;;19.00;99.90;;;;;;5067221;28;20706;-82
2022/09/07 05:52:00;;;;;;;1.63;1.53;;;19.10;99.90;;;;;;5061394;28;20782;-83
2022/09/07 05:54:27;;;;;;;1.50;1.40;;;19.20;99.90;;;;;;5075050;28;20664;-83
2022/09/07 05:56:54;;;;;;;2.17;1.97;;;19.20;99.90;;;;;;5070709;28;20625;-83
2022/09/07 05:59:21;;;;;;;1.93;1.50;;;19.30;99.90;;;;;;5069341;28;20622;-84
2022/09/07 06:01:48;;;;;;;2.87;2.47;;;19.30;99.90;;;;;;5078866;28;20628;-82
2022/09/07 06:04:15;;;;;;;2.67;2.37;;;19.30;99.90;;;;;;5075595;28;20714;-84
2022/09/07 06:06:42;;;;;;;1.70;1.57;;;19.30;99.90;;;;;;5089437;28;20734;-82
2022/09/07 06:09:11;;;;;;;1.90;1.80;;;19.20;99.90;;;;;;5082518;28;21251;-83
2022/09/07 06:11:38;;;;;;;1.50;1.40;;;19.20;99.90;;;;;;5088312;28;20652;-82
2022/09/07 06:14:05;;;;;;;2.67;1.73;;;19.30;99.90;;;;;;5081988;28;20648;-82
2022/09/07 06:16:34;;;;;;;2.20;1.90;;;19.40;99.90;;;;;;5069724;28;21335;-83
2022/09/07 06:19:05;;;;;;;1.50;1.40;;;19.50;99.90;;;;;;5073474;28;20621;-83
2022/09/07 06:21:36;;;;;;;6.83;1.60;;;19.60;99.90;;;;;;5063776;28;20617;-82
2022/09/07 06:24:03;;;;;;;1.60;1.50;;;19.50;99.90;;;;;;5069679;28;20713;-81
2022/09/07 06:26:32;;;;;;;1.63;1.47;;;19.50;99.90;;;;;;5068813;28;20621;-81
2022/09/07 06:28:59;;;;;;;1.77;1.67;;;19.60;99.90;;;;;;5070147;28;20664;-81
2022/09/07 06:31:27;;;;;;;1.57;1.47;;;19.60;99.90;;;;;;5069913;28;20605;-82
2022/09/07 06:33:55;;;;;;;1.40;1.13;;;19.80;99.90;;;;;;5068909;28;20678;-81
2022/09/07 06:36:26;;;;;;;3.50;1.60;;;19.80;99.90;;;;;;5068921;28;20950;-83
2022/09/07 06:38:54;;;;;;;1.27;1.17;;;20.00;99.90;;;;;;5070398;28;20710;-81
2022/09/07 06:41:23;;;;;;;2.10;1.53;;;20.00;99.90;;;;;;5069983;28;20628;-82
2022/09/07 06:43:53;;;;;;;2.10;1.40;;;20.00;99.90;;;;;;5055114;28;21209;-81
2022/09/07 06:46:20;;;;;;;1.73;1.63;;;20.00;99.90;;;;;;5069745;28;20625;-83
2022/09/07 06:48:47;;;;;;;1.80;1.70;;;19.90;99.90;;;;;;5070318;28;20647;-82
2022/09/07 06:51:17;;;;;;;1.77;1.50;;;20.00;99.90;;;;;;5070766;28;21175;-82
2022/09/07 06:53:45;;;;;;;2.10;1.93;;;20.10;99.90;;;;;;5069920;28;21190;-82
2022/09/07 06:56:15;;;;;;;1.23;1.17;;;20.20;99.90;;;;;;5069229;28;21252;-83
2022/09/07 06:58:42;;;;;;;1.40;1.30;;;20.30;99.90;;;;;;5069910;28;20609;-81
2022/09/07 07:01:13;;;;;;;1.53;1.40;;;20.40;99.90;;;;;;5070303;28;20644;-82
2022/09/07 07:03:40;;;;;;;1.83;1.73;;;20.40;99.90;;;;;;5069948;28;20649;-82
2022/09/07 07:06:08;;;;;;;1.70;1.50;;;20.40;99.90;;;;;;5070190;28;20621;-83
2022/09/07 07:08:35;;;;;;;1.60;1.47;;;20.40;99.90;;;;;;5069535;28;20621;-82
2022/09/07 07:11:04;;;;;;;2.90;1.33;;;20.50;99.90;;;;;;5069819;28;20620;-82
2022/09/07 07:13:30;;;;;;;2.43;1.90;;;20.60;99.90;;;;;;5070592;28;20668;-82
2022/09/07 07:16:04;;;;;;;1.63;1.50;;;20.80;99.90;;;;;;5069674;28;20645;-83
2022/09/07 07:18:32;;;;;;;2.00;1.57;;;20.80;99.90;;;;;;5069757;28;20621;-82
2022/09/07 07:21:02;;;;;;;1.93;1.70;;;20.90;99.90;;;;;;5069596;28;21245;-81
2022/09/07 07:23:30;;;;;;;1.60;1.50;;;21.00;99.90;;;;;;5069834;28;20743;-82
2022/09/07 07:26:01;;;;;;;2.40;1.60;;;21.10;99.90;;;;;;5069576;28;20660;-82
2022/09/07 07:28:28;;;;;;;1.50;1.30;;;21.20;99.90;;;;;;5069517;28;20621;-81
2022/09/07 07:30:56;;;;;;;2.43;1.90;;;21.10;99.90;;;;;;5069495;28;20602;-82
2022/09/07 07:33:23;;;;;;;1.93;1.30;;;21.30;99.90;;;;;;5069315;28;21027;-82
2022/09/07 07:35:52;;;;;;;2.50;2.30;;;21.20;99.70;;;;;;5069474;28;20644;-80
2022/09/07 07:38:19;;;;;;;1.73;1.30;;;21.40;99.90;;;;;;5069030;28;20629;-81
2022/09/07 07:40:52;;;;;;;2.70;2.10;;;21.50;99.90;;;;;;5068183;28;20636;-81
2022/09/07 07:43:19;;;;;;;1.90;1.80;;;21.50;99.90;;;;;;5052978;28;20654;-82
2022/09/07 07:45:46;;;;;;;1.20;1.20;;;21.60;99.40;;;;;;5069202;28;20613;-82
2022/09/07 07:48:13;;;;;;;2.07;1.87;;;21.70;99.20;;;;;;5068464;28;20617;-81
2022/09/07 07:50:40;;;;;;;1.20;1.10;;;21.90;99.40;;;;;;5069295;28;20621;-81
2022/09/07 07:53:08;;;;;;;1.60;1.50;;;21.90;99.10;;;;;;5069475;28;20732;-81
2022/09/07 07:55:37;;;;;;;2.80;1.67;;;21.90;99.00;;;;;;5065743;28;20749;-80
2022/09/07 07:58:04;;;;;;;3.20;1.73;;;22.00;98.20;;;;;;5066928;28;20687;-81
2022/09/07 08:00:31;;;;;;;2.83;1.50;;;22.20;98.50;;;;;;5069608;28;21507;-80
2022/09/07 08:02:57;;;;;;;1.37;1.27;;;22.20;98.00;;;;;;5071741;28;20628;-81
2022/09/07 08:05:24;;;;;;;3.37;1.50;;;22.20;98.40;;;;;;5069343;28;21166;-80
2022/09/07 08:07:51;;;;;;;1.87;1.60;;;22.30;98.50;;;;;;5069388;28;20618;-81
2022/09/07 08:10:21;;;;;;;1.37;1.27;;;22.40;98.10;;;;;;5078060;28;21023;-80
2022/09/07 08:12:48;;;;;;;1.40;1.30;;;22.50;97.60;;;;;;5075783;28;21482;-82
2022/09/07 08:15:15;;;;;;;1.83;1.50;;;22.50;97.40;;;;;;5065685;28;21360;-82
2022/09/07 08:17:42;;;;;;;2.60;1.40;;;22.50;97.50;;;;;;5077870;28;21091;-82
2022/09/07 08:20:09;;;;;;;2.83;1.53;;;22.60;97.30;;;;;;5067224;28;20629;-83
2022/09/07 08:22:36;;;;;;;1.77;1.43;;;22.70;97.50;;;;;;5074161;28;20616;-84
2022/09/07 08:25:03;;;;;;;1.67;1.57;;;22.80;97.20;;;;;;5073654;28;21038;-82
2022/09/07 08:27:31;;;;;;;1.83;1.70;;;22.90;96.50;;;;;;5059615;28;20622;-82
2022/09/07 08:29:59;;;;;;;2.33;2.10;;;23.00;96.40;;;;;;5068530;28;20745;-82
2022/09/07 08:32:25;;;;;;;2.03;1.50;;;23.20;96.20;;;;;;5075871;28;21242;-81
2022/09/07 08:34:52;;;;;;;2.17;1.97;;;23.50;96.10;;;;;;5071269;28;21344;-82
2022/09/07 08:37:19;;;;;;;1.47;1.37;;;23.30;96.60;;;;;;5065627;28;20621;-81
2022/09/07 08:39:46;;;;;;;2.10;1.90;;;23.20;96.60;;;;;;5068169;28;20649;-81
2022/09/07 08:42:33;;;;;;;3.33;1.70;;;23.30;96.10;;;;;;5067930;28;20772;-81
2022/09/07 08:45:06;;;;;;;1.20;1.13;;;23.30;95.90;;;;;;5065748;28;20661;-81
2022/09/07 08:47:38;;;;;;;2.93;2.73;;;23.70;95.80;;;;;;5068998;28;20617;-82
2022/09/07 08:50:10;;;;;;;5.03;1.60;;;23.70;95.50;;;;;;5068324;28;20721;-81
2022/09/07 08:52:45;;;;;;;1.53;1.43;;;23.70;95.50;;;;;;5067903;28;21353;-82
2022/09/07 08:55:16;;;;;;;2.47;2.00;;;23.70;95.30;;;;;;5067487;28;20625;-79
2022/09/07 08:57:48;;;;;;;1.90;1.77;;;23.70;94.50;;;;;;5070604;28;20632;-80
2022/09/07 09:00:18;;;;;;;1.50;1.40;;;23.70;95.00;;;;;;5070624;28;20650;-80
2022/09/07 09:02:44;;;;;;;3.07;1.40;;;23.70;94.60;;;;;;5068649;28;20637;-78
2022/09/07 09:05:26;;;;;;;2.90;1.70;;;23.80;95.30;;;;;;5068958;28;20706;-79
2022/09/07 09:08:11;;;;;;;2.00;1.53;;;24.10;94.90;;;;;;5068961;28;20630;-79
2022/09/07 09:10:47;;;;;;;1.80;1.70;;;24.00;94.80;;;;;;5061985;28;21217;-80
2022/09/07 09:13:18;;;;;;;2.03;1.83;;;24.00;93.80;;;;;;5066918;28;20720;-79
2022/09/07 09:16:00;;;;;;;1.20;1.10;;;24.20;94.90;;;;;;5073919;28;20616;-79
2022/09/07 09:18:48;;;;;;;1.67;1.60;;;24.30;94.00;;;;;;5069889;28;20719;-79
2022/09/07 09:21:17;;;;;;;1.60;1.50;;;24.30;94.30;;;;;;5072545;28;20625;-81
2022/09/07 09:23:47;;;;;;;1.90;1.47;;;24.40;93.70;;;;;;5067392;28;20679;-80
2022/09/07 09:26:18;;;;;;;1.93;1.83;;;24.40;92.70;;;;;;5072324;28;20632;-80
2022/09/07 09:28:44;;;;;;;2.30;2.00;;;24.40;92.70;;;;;;5079614;28;20636;-81
2022/09/07 09:31:18;;;;;;;1.80;1.70;;;24.40;93.60;;;;;;5084788;28;21393;-81
2022/09/07 09:34:05;;;;;;;2.07;1.97;;;24.30;93.30;;;;;;5080771;28;20636;-80
2022/09/07 09:36:34;;;;;;;1.97;1.60;;;24.50;93.30;;;;;;5070968;28;20726;-80
2022/09/07 09:39:01;;;;;;;1.40;1.30;;;24.40;92.60;;;;;;5069419;28;20690;-81
2022/09/07 09:41:37;;;;;;;1.90;1.70;;;24.50;93.30;;;;;;5071896;28;20671;-81
2022/09/07 09:44:04;;;;;;;2.33;2.07;;;24.60;92.60;;;;;;5073466;28;20660;-80
2022/09/07 09:46:34;;;;;;;1.70;1.60;;;24.60;92.70;;;;;;5079754;28;20625;-80
2022/09/07 09:49:05;;;;;;;2.07;1.80;;;24.80;93.10;;;;;;5078159;28;20685;-81
2022/09/07 09:51:34;;;;;;;1.63;1.40;;;25.10;91.60;;;;;;5071653;28;20624;-81
2022/09/07 09:54:06;;;;;;;1.20;1.20;;;25.20;91.90;;;;;;5071254;28;20628;-81
2022/09/07 09:56:40;;;;;;;2.00;1.90;;;25.30;91.70;;;;;;5070687;28;20682;-81
2022/09/07 09:59:27;;;;;;;1.60;1.50;;;25.20;91.00;;;;;;5070689;28;20628;-81
2022/09/07 10:01:55;;;;;;;3.47;1.40;;;25.10;91.70;;;;;;5075084;28;20727;-81
2022/09/07 10:04:32;;;;;;;1.77;1.67;;;25.10;91.40;;;;;;5083494;28;20772;-81
2022/09/07 10:07:08;;;;;;;1.40;1.30;;;25.20;91.40;;;;;;5083072;28;21181;-79
2022/09/07 10:09:37;;;;;;;1.67;1.57;;;25.50;91.40;;;;;;5070285;28;20687;-80
2022/09/07 10:12:06;;;;;;;2.03;1.77;;;25.60;90.90;;;;;;5083039;28;20733;-79
2022/09/07 10:14:35;;;;;;;1.77;1.67;;;25.80;90.20;;;;;;5073073;28;20728;-79
2022/09/07 10:17:12;;;;;;;1.50;1.40;;;25.90;88.10;;;;;;5070046;28;20632;-79
2022/09/07 10:19:41;;;;;;;3.33;1.50;;;26.00;89.70;;;;;;5070556;28;20625;-80
2022/09/07 10:22:23;;;;;;;3.43;2.03;;;25.90;86.80;;;;;;5071478;28;20645;-80
2022/09/07 10:24:51;;;;;;;4.20;1.90;;;25.60;89.40;;;;;;5069937;28;20671;-80
2022/09/07 10:27:30;;;;;;;1.37;1.30;;;25.50;90.60;;;;;;5088835;28;20682;-80
2022/09/07 10:29:57;;;;;;;1.50;1.40;;;25.60;89.20;;;;;;5077949;28;20729;-79
2022/09/07 10:32:38;;;;;;;1.67;1.53;;;25.80;87.00;;;;;;5072103;28;20744;-80
2022/09/07 10:35:13;;;;;;;1.27;1.20;;;25.90;85.60;;;;;;5083745;28;21037;-80
2022/09/07 10:37:50;;;;;;;1.97;1.80;;;25.60;86.40;;;;;;5073859;28;20631;-79
2022/09/07 10:40:26;;;;;;;1.20;1.10;;;25.80;85.10;;;;;;5071430;28;20617;-80
2022/09/07 10:43:01;;;;;;;2.10;1.50;;;25.90;85.90;;;;;;5075019;28;20626;-80
2022/09/07 10:45:37;;;;;;;1.80;1.70;;;25.90;85.20;;;;;;5075166;28;20667;-80
2022/09/07 10:48:15;;;;;;;1.67;1.57;;;25.90;86.80;;;;;;5080255;28;21356;-79
2022/09/07 10:50:47;;;;;;;1.77;1.67;;;25.50;86.30;;;;;;5070445;28;20624;-80
2022/09/07 10:53:30;;;;;;;1.50;1.40;;;25.40;86.20;;;;;;5070390;28;20624;-79
2022/09/07 10:56:04;;;;;;;1.50;1.40;;;25.30;87.70;;;;;;5070791;28;20629;-79
2022/09/07 10:58:40;;;;;;;1.53;1.43;;;25.30;89.80;;;;;;5083876;28;20636;-80
2022/09/07 11:01:15;;;;;;;1.90;1.70;;;25.20;87.50;;;;;;5070088;28;20648;-80
2022/09/07 11:04:01;;;;;;;1.60;1.50;;;25.20;90.00;;;;;;5082708;28;20714;-79
2022/09/07 11:06:35;;;;;;;2.40;2.20;;;24.90;90.40;;;;;;5087792;28;20628;-80
2022/09/07 11:09:29;;;;;;;1.50;1.40;;;24.80;90.80;;;;;;5062965;28;20624;-80
2022/09/07 11:12:02;;;;;;;1.60;1.50;;;24.80;91.50;;;;;;5074947;28;21375;-80
2022/09/07 11:14:36;;;;;;;2.10;1.97;;;24.70;90.90;;;;;;5053903;28;21541;-79
2022/09/07 11:17:11;;;;;;;3.67;2.20;;;24.60;90.70;;;;;;5070914;28;20624;-80
2022/09/07 11:19:45;;;;;;;1.50;1.40;;;24.50;91.50;;;;;;5070200;28;20625;-79
2022/09/07 11:22:26;;;;;;;2.40;2.20;;;24.40;91.90;;;;;;5076986;28;20640;-80
2022/09/07 11:24:57;;;;;;;2.47;1.60;;;24.60;91.20;;;;;;5081835;28;20672;-80
2022/09/07 11:27:29;;;;;;;2.07;1.97;;;24.30;91.40;;;;;;5089439;28;20984;-80
2022/09/07 11:30:03;;;;;;;1.90;1.80;;;24.20;92.10;;;;;;5053732;28;21213;-80
2022/09/07 11:32:33;;;;;;;1.83;1.73;;;24.20;92.40;;;;;;5084004;28;20723;-80
2022/09/07 11:35:07;;;;;;;2.33;2.13;;;24.40;92.60;;;;;;5072862;28;21222;-80
2022/09/07 11:37:41;;;;;;;1.80;1.70;;;24.70;92.10;;;;;;5070271;28;20632;-79
2022/09/07 11:40:14;;;;;;;2.47;2.03;;;25.20;91.00;;;;;;5071978;28;20633;-80
2022/09/07 11:42:48;;;;;;;2.47;1.80;;;25.50;90.20;;;;;;5066596;28;20630;-79
2022/09/07 11:45:21;;;;;;;2.33;1.60;;;25.60;90.30;;;;;;5069161;28;20657;-80
2022/09/07 11:47:54;;;;;;;1.87;1.77;;;26.00;89.80;;;;;;5069834;28;20721;-80
2022/09/07 11:50:23;;;;;;;2.70;1.43;;;25.90;87.20;;;;;;5069040;28;20691;-80
2022/09/07 11:52:54;;;;;;;2.40;1.57;;;26.00;81.80;;;;;;5073769;28;20702;-80
2022/09/07 11:55:24;;;;;;;1.77;1.67;;;26.20;83.10;;;;;;5068942;28;20662;-79
2022/09/07 11:58:32;;;;;;;1.67;1.57;;;26.50;80.20;;;;;;5068391;28;20626;-80
2022/09/07 12:01:12;;;;;;;1.53;1.43;;;26.50;80.80;;;;;;5069153;28;20627;-80
2022/09/07 12:04:08;;;;;;;3.00;1.50;;;26.40;82.40;;;;;;5082563;28;20636;-80
2022/09/07 12:07:02;;;;;;;1.77;1.67;;;26.50;81.70;;;;;;5077644;28;20657;-80
2022/09/07 12:09:46;;;;;;;2.20;2.00;;;26.60;82.50;;;;;;5082289;28;20628;-80
2022/09/07 12:12:42;;;;;;;2.10;1.63;;;26.30;85.20;;;;;;5088251;28;20613;-80
2022/09/07 12:15:23;;;;;;;1.60;1.43;;;25.90;85.80;;;;;;5089373;28;20620;-80
2022/09/07 12:18:02;;;;;;;2.10;1.90;;;25.70;85.70;;;;;;5073625;28;20628;-80
2022/09/07 12:20:39;;;;;;;4.80;1.50;;;25.60;85.00;;;;;;5058253;28;20712;-81
2022/09/07 12:23:20;;;;;;;1.80;1.70;;;25.50;84.40;;;;;;5090002;28;20751;-81
2022/09/07 12:25:48;;;;;;;1.50;1.40;;;25.40;83.50;;;;;;5072927;28;20964;-79
2022/09/07 12:28:17;;;;;;;1.40;1.30;;;25.30;84.70;;;;;;5073176;28;20625;-80
2022/09/07 12:30:56;;;;;;;2.90;1.70;;;25.50;83.60;;;;;;5086462;28;20624;-79
2022/09/07 12:33:27;;;;;;;1.57;1.47;;;25.80;83.40;;;;;;5068992;28;20642;-80
2022/09/07 12:35:57;;;;;;;1.70;1.60;;;25.90;82.20;;;;;;5076748;28;21212;-79
2022/09/07 12:39:04;;;;;;;2.93;1.80;;;26.00;80.90;;;;;;5068852;28;21058;-79
2022/09/07 12:41:45;;;;;;;1.13;1.13;;;26.10;83.00;;;;;;5069691;28;21252;-79
2022/09/07 12:44:24;;;;;;;1.33;1.23;;;26.10;83.40;;;;;;5065103;28;20621;-79
2022/09/07 12:46:56;;;;;;;2.33;1.40;;;26.10;81.80;;;;;;5084119;28;20791;-79
2022/09/07 12:49:46;;;;;;;2.40;1.67;;;26.10;83.00;;;;;;5070238;28;20657;-79
2022/09/07 12:52:30;;;;;;;3.60;1.40;;;25.90;80.90;;;;;;5089349;28;20883;-77
2022/09/07 12:55:08;;;;;;;2.20;1.60;;;25.70;79.70;;;;;;5076048;28;20724;-77
2022/09/07 12:57:45;;;;;;;1.70;1.60;;;25.70;82.30;;;;;;5070087;28;21257;-77
2022/09/07 13:00:18;;;;;;;1.97;1.80;;;25.50;82.20;;;;;;5081413;28;20639;-78
2022/09/07 13:03:30;;;;;;;1.60;1.50;;;25.50;80.90;;;;;;5069461;28;20728;-77
2022/09/07 13:06:05;;;;;;;1.53;1.33;;;25.50;81.70;;;;;;5043909;28;20690;-77
2022/09/07 13:09:09;;;;;;;1.50;1.40;;;25.50;80.10;;;;;;5086408;28;20616;-77
2022/09/07 13:11:38;;;;;;;1.50;1.40;;;25.40;80.90;;;;;;5066617;28;20665;-78